sensor_id;sensor_type;location;lat;lon;timestamp;P1;durP1;ratioP1;P2;durP2;ratioP2
32321;SDS011;61553;48.994;8.940;2023-06-24T00:00:58;10.95;;;6.28;;
32321;SDS011;61553;48.994;8.940;2023-06-24T00:03:24;9.88;;;6.15;;
32321;SDS011;61553;48.994;8.940;2023-06-24T00:05:49;8.77;;;6.10;;
32321;SDS011;61553;48.994;8.940;2023-06-24T00:08:15;8.50;;;5.97;;
32321;SDS011;61553;48.994;8.940;2023-06-24T00:10:44;8.63;;;6.53;;
32321;SDS011;61553;48.994;8.940;2023-06-24T00:13:11;9.18;;;6.32;;
32321;SDS011;61553;48.994;8.940;2023-06-24T00:15:39;13.20;;;6.70;;
32321;SDS011;61553;48.994;8.940;2023-06-24T00:18:08;12.82;;;6.88;;
32321;SDS011;61553;48.994;8.940;2023-06-24T00:20:34;10.95;;;7.07;;
32321;SDS011;61553;48.994;8.940;2023-06-24T00:22:59;11.07;;;7.50;;
32321;SDS011;61553;48.994;8.940;2023-06-24T00:25:25;10.38;;;6.38;;
32321;SDS011;61553;48.994;8.940;2023-06-24T00:27:51;9.23;;;6.30;;
32321;SDS011;61553;48.994;8.940;2023-06-24T00:30:17;8.63;;;5.95;;
32321;SDS011;61553;48.994;8.940;2023-06-24T00:32:42;9.02;;;6.43;;
32321;SDS011;61553;48.994;8.940;2023-06-24T00:35:08;9.52;;;6.90;;
32321;SDS011;61553;48.994;8.940;2023-06-24T00:37:35;10.38;;;6.93;;
32321;SDS011;61553;48.994;8.940;2023-06-24T00:40:01;12.15;;;6.18;;
32321;SDS011;61553;48.994;8.940;2023-06-24T00:42:28;9.07;;;5.63;;
32321;SDS011;61553;48.994;8.940;2023-06-24T00:44:54;10.23;;;7.00;;
32321;SDS011;61553;48.994;8.940;2023-06-24T00:47:20;10.15;;;6.63;;
32321;SDS011;61553;48.994;8.940;2023-06-24T00:49:46;10.23;;;7.13;;
32321;SDS011;61553;48.994;8.940;2023-06-24T00:52:11;8.40;;;6.25;;
32321;SDS011;61553;48.994;8.940;2023-06-24T00:54:43;9.38;;;6.78;;
32321;SDS011;61553;48.994;8.940;2023-06-24T00:57:08;8.55;;;5.97;;
32321;SDS011;61553;48.994;8.940;2023-06-24T00:59:35;9.55;;;6.70;;
32321;SDS011;61553;48.994;8.940;2023-06-24T01:02:02;9.98;;;6.78;;
32321;SDS011;61553;48.994;8.940;2023-06-24T01:04:29;9.10;;;6.47;;
32321;SDS011;61553;48.994;8.940;2023-06-24T01:06:56;9.25;;;6.10;;
32321;SDS011;61553;48.994;8.940;2023-06-24T01:09:23;10.50;;;6.35;;
32321;SDS011;61553;48.994;8.940;2023-06-24T01:11:49;9.40;;;6.32;;
32321;SDS011;61553;48.994;8.940;2023-06-24T01:14:15;9.90;;;7.15;;
32321;SDS011;61553;48.994;8.940;2023-06-24T01:16:59;10.07;;;6.88;;
32321;SDS011;61553;48.994;8.940;2023-06-24T01:28:30;9.13;;;6.00;;
32321;SDS011;61553;48.994;8.940;2023-06-24T01:33:32;10.27;;;7.22;;
32321;SDS011;61553;48.994;8.940;2023-06-24T01:36:18;9.80;;;6.35;;
32321;SDS011;61553;48.994;8.940;2023-06-24T01:38:48;10.35;;;6.35;;
32321;SDS011;61553;48.994;8.940;2023-06-24T01:41:31;10.73;;;6.80;;
32321;SDS011;61553;48.994;8.940;2023-06-24T01:44:01;11.65;;;7.05;;
32321;SDS011;61553;48.994;8.940;2023-06-24T01:46:28;11.73;;;6.85;;
32321;SDS011;61553;48.994;8.940;2023-06-24T01:48:54;8.95;;;5.78;;
32321;SDS011;61553;48.994;8.940;2023-06-24T01:51:24;8.70;;;6.13;;
32321;SDS011;61553;48.994;8.940;2023-06-24T01:53:58;10.30;;;7.10;;
32321;SDS011;61553;48.994;8.940;2023-06-24T01:56:27;8.73;;;6.18;;
32321;SDS011;61553;48.994;8.940;2023-06-24T01:58:54;11.70;;;6.45;;
32321;SDS011;61553;48.994;8.940;2023-06-24T02:01:22;9.02;;;6.72;;
32321;SDS011;61553;48.994;8.940;2023-06-24T02:03:49;12.07;;;6.82;;
32321;SDS011;61553;48.994;8.940;2023-06-24T02:06:17;10.07;;;6.10;;
32321;SDS011;61553;48.994;8.940;2023-06-24T02:08:45;10.25;;;5.95;;
32321;SDS011;61553;48.994;8.940;2023-06-24T02:11:12;10.25;;;6.43;;
32321;SDS011;61553;48.994;8.940;2023-06-24T02:13:39;10.25;;;6.90;;
32321;SDS011;61553;48.994;8.940;2023-06-24T02:16:07;10.27;;;6.32;;
32321;SDS011;61553;48.994;8.940;2023-06-24T02:18:35;12.52;;;7.07;;
32321;SDS011;61553;48.994;8.940;2023-06-24T02:21:03;8.13;;;5.88;;
32321;SDS011;61553;48.994;8.940;2023-06-24T02:23:29;10.00;;;6.25;;
32321;SDS011;61553;48.994;8.940;2023-06-24T02:25:56;9.02;;;6.47;;
32321;SDS011;61553;48.994;8.940;2023-06-24T02:28:24;9.55;;;6.40;;
32321;SDS011;61553;48.994;8.940;2023-06-24T02:30:50;9.95;;;6.32;;
32321;SDS011;61553;48.994;8.940;2023-06-24T02:33:16;11.30;;;6.95;;
32321;SDS011;61553;48.994;8.940;2023-06-24T02:35:42;9.18;;;6.63;;
32321;SDS011;61553;48.994;8.940;2023-06-24T02:38:10;9.00;;;6.25;;
32321;SDS011;61553;48.994;8.940;2023-06-24T02:40:36;10.40;;;6.68;;
32321;SDS011;61553;48.994;8.940;2023-06-24T02:43:02;9.15;;;5.88;;
32321;SDS011;61553;48.994;8.940;2023-06-24T02:45:27;9.25;;;6.43;;
32321;SDS011;61553;48.994;8.940;2023-06-24T02:47:54;9.75;;;7.13;;
32321;SDS011;61553;48.994;8.940;2023-06-24T02:50:22;9.77;;;6.40;;
32321;SDS011;61553;48.994;8.940;2023-06-24T02:52:49;9.55;;;6.05;;
32321;SDS011;61553;48.994;8.940;2023-06-24T02:55:16;10.10;;;6.80;;
32321;SDS011;61553;48.994;8.940;2023-06-24T02:57:42;9.52;;;6.60;;
32321;SDS011;61553;48.994;8.940;2023-06-24T03:00:09;8.82;;;6.05;;
32321;SDS011;61553;48.994;8.940;2023-06-24T03:02:39;10.07;;;6.70;;
32321;SDS011;61553;48.994;8.940;2023-06-24T03:05:08;10.88;;;6.63;;
32321;SDS011;61553;48.994;8.940;2023-06-24T03:07:35;9.15;;;6.43;;
32321;SDS011;61553;48.994;8.940;2023-06-24T03:10:03;10.63;;;6.38;;
32321;SDS011;61553;48.994;8.940;2023-06-24T03:12:32;14.43;;;6.47;;
32321;SDS011;61553;48.994;8.940;2023-06-24T03:14:58;8.05;;;5.68;;
32321;SDS011;61553;48.994;8.940;2023-06-24T03:17:25;9.40;;;6.07;;
32321;SDS011;61553;48.994;8.940;2023-06-24T03:19:51;11.80;;;6.72;;
32321;SDS011;61553;48.994;8.940;2023-06-24T03:22:17;11.18;;;7.15;;
32321;SDS011;61553;48.994;8.940;2023-06-24T03:24:43;9.85;;;6.20;;
32321;SDS011;61553;48.994;8.940;2023-06-24T03:27:09;12.50;;;7.03;;
32321;SDS011;61553;48.994;8.940;2023-06-24T03:29:34;10.85;;;6.22;;
32321;SDS011;61553;48.994;8.940;2023-06-24T03:32:00;11.13;;;7.00;;
32321;SDS011;61553;48.994;8.940;2023-06-24T03:34:26;9.68;;;6.38;;
32321;SDS011;61553;48.994;8.940;2023-06-24T03:36:52;10.77;;;6.80;;
32321;SDS011;61553;48.994;8.940;2023-06-24T03:39:19;12.93;;;7.32;;
32321;SDS011;61553;48.994;8.940;2023-06-24T03:41:45;15.73;;;7.10;;
32321;SDS011;61553;48.994;8.940;2023-06-24T03:44:11;11.57;;;7.10;;
32321;SDS011;61553;48.994;8.940;2023-06-24T03:46:37;11.77;;;6.85;;
32321;SDS011;61553;48.994;8.940;2023-06-24T03:49:03;12.45;;;6.82;;
32321;SDS011;61553;48.994;8.940;2023-06-24T03:51:29;11.52;;;7.10;;
32321;SDS011;61553;48.994;8.940;2023-06-24T03:53:55;11.10;;;7.60;;
32321;SDS011;61553;48.994;8.940;2023-06-24T03:56:20;9.80;;;7.00;;
32321;SDS011;61553;48.994;8.940;2023-06-24T03:58:46;12.43;;;6.75;;
32321;SDS011;61553;48.994;8.940;2023-06-24T04:01:11;9.27;;;6.40;;
32321;SDS011;61553;48.994;8.940;2023-06-24T04:03:37;12.80;;;7.55;;
32321;SDS011;61553;48.994;8.940;2023-06-24T04:06:02;12.00;;;7.82;;
32321;SDS011;61553;48.994;8.940;2023-06-24T04:08:28;16.10;;;7.85;;
32321;SDS011;61553;48.994;8.940;2023-06-24T04:10:54;17.25;;;7.70;;
32321;SDS011;61553;48.994;8.940;2023-06-24T04:13:20;11.43;;;7.97;;
32321;SDS011;61553;48.994;8.940;2023-06-24T04:15:46;25.77;;;8.55;;
32321;SDS011;61553;48.994;8.940;2023-06-24T04:18:12;19.73;;;8.07;;
32321;SDS011;61553;48.994;8.940;2023-06-24T04:20:37;12.57;;;7.90;;
32321;SDS011;61553;48.994;8.940;2023-06-24T04:23:03;13.05;;;7.65;;
32321;SDS011;61553;48.994;8.940;2023-06-24T04:25:34;14.98;;;7.72;;
32321;SDS011;61553;48.994;8.940;2023-06-24T04:28:00;13.95;;;6.75;;
32321;SDS011;61553;48.994;8.940;2023-06-24T04:30:26;15.02;;;8.50;;
32321;SDS011;61553;48.994;8.940;2023-06-24T04:32:52;9.50;;;7.15;;
32321;SDS011;61553;48.994;8.940;2023-06-24T04:35:17;13.18;;;7.30;;
32321;SDS011;61553;48.994;8.940;2023-06-24T04:37:43;11.27;;;6.80;;
32321;SDS011;61553;48.994;8.940;2023-06-24T04:40:09;10.50;;;6.70;;
32321;SDS011;61553;48.994;8.940;2023-06-24T04:42:34;15.82;;;7.10;;
32321;SDS011;61553;48.994;8.940;2023-06-24T04:45:00;11.63;;;7.65;;
32321;SDS011;61553;48.994;8.940;2023-06-24T04:47:30;10.93;;;7.45;;
32321;SDS011;61553;48.994;8.940;2023-06-24T04:49:56;10.57;;;7.78;;
32321;SDS011;61553;48.994;8.940;2023-06-24T04:52:23;13.82;;;8.57;;
32321;SDS011;61553;48.994;8.940;2023-06-24T04:54:48;15.48;;;7.65;;
32321;SDS011;61553;48.994;8.940;2023-06-24T04:57:25;11.10;;;7.47;;
32321;SDS011;61553;48.994;8.940;2023-06-24T04:59:52;11.57;;;7.22;;
32321;SDS011;61553;48.994;8.940;2023-06-24T05:02:18;10.35;;;7.32;;
32321;SDS011;61553;48.994;8.940;2023-06-24T05:04:43;12.80;;;6.95;;
32321;SDS011;61553;48.994;8.940;2023-06-24T05:07:09;9.23;;;5.63;;
32321;SDS011;61553;48.994;8.940;2023-06-24T05:09:35;13.05;;;6.20;;
32321;SDS011;61553;48.994;8.940;2023-06-24T05:12:03;10.90;;;6.03;;
32321;SDS011;61553;48.994;8.940;2023-06-24T05:14:33;9.13;;;5.90;;
32321;SDS011;61553;48.994;8.940;2023-06-24T05:17:00;8.82;;;6.03;;
32321;SDS011;61553;48.994;8.940;2023-06-24T05:19:26;8.60;;;6.18;;
32321;SDS011;61553;48.994;8.940;2023-06-24T05:21:51;8.68;;;5.72;;
32321;SDS011;61553;48.994;8.940;2023-06-24T05:24:17;8.88;;;5.65;;
32321;SDS011;61553;48.994;8.940;2023-06-24T05:26:44;10.43;;;5.43;;
32321;SDS011;61553;48.994;8.940;2023-06-24T05:29:11;8.68;;;5.57;;
32321;SDS011;61553;48.994;8.940;2023-06-24T05:31:37;10.75;;;6.07;;
32321;SDS011;61553;48.994;8.940;2023-06-24T05:34:02;8.82;;;5.82;;
32321;SDS011;61553;48.994;8.940;2023-06-24T05:36:28;11.52;;;6.47;;
32321;SDS011;61553;48.994;8.940;2023-06-24T05:38:54;9.73;;;5.50;;
32321;SDS011;61553;48.994;8.940;2023-06-24T05:41:19;7.97;;;5.70;;
32321;SDS011;61553;48.994;8.940;2023-06-24T05:43:45;9.45;;;5.85;;
32321;SDS011;61553;48.994;8.940;2023-06-24T05:46:11;6.55;;;5.05;;
32321;SDS011;61553;48.994;8.940;2023-06-24T05:48:36;6.97;;;5.38;;
32321;SDS011;61553;48.994;8.940;2023-06-24T05:51:02;7.22;;;5.93;;
32321;SDS011;61553;48.994;8.940;2023-06-24T05:53:28;7.78;;;5.82;;
32321;SDS011;61553;48.994;8.940;2023-06-24T05:55:54;6.68;;;5.38;;
32321;SDS011;61553;48.994;8.940;2023-06-24T05:58:19;8.52;;;5.28;;
32321;SDS011;61553;48.994;8.940;2023-06-24T06:00:45;7.50;;;5.03;;
32321;SDS011;61553;48.994;8.940;2023-06-24T06:03:10;8.70;;;5.60;;
32321;SDS011;61553;48.994;8.940;2023-06-24T06:05:36;7.13;;;5.57;;
32321;SDS011;61553;48.994;8.940;2023-06-24T06:08:02;7.93;;;5.95;;
32321;SDS011;61553;48.994;8.940;2023-06-24T06:10:28;6.63;;;5.50;;
32321;SDS011;61553;48.994;8.940;2023-06-24T06:12:53;6.70;;;4.75;;
32321;SDS011;61553;48.994;8.940;2023-06-24T06:15:19;6.85;;;4.97;;
32321;SDS011;61553;48.994;8.940;2023-06-24T06:17:45;7.15;;;5.50;;
32321;SDS011;61553;48.994;8.940;2023-06-24T06:20:11;6.82;;;5.50;;
32321;SDS011;61553;48.994;8.940;2023-06-24T06:22:37;8.98;;;5.32;;
32321;SDS011;61553;48.994;8.940;2023-06-24T06:25:06;6.22;;;5.30;;
32321;SDS011;61553;48.994;8.940;2023-06-24T06:27:32;7.55;;;5.60;;
32321;SDS011;61553;48.994;8.940;2023-06-24T06:29:58;7.30;;;5.25;;
32321;SDS011;61553;48.994;8.940;2023-06-24T06:32:24;6.32;;;4.90;;
32321;SDS011;61553;48.994;8.940;2023-06-24T06:34:50;8.15;;;4.65;;
32321;SDS011;61553;48.994;8.940;2023-06-24T06:37:15;8.02;;;5.55;;
32321;SDS011;61553;48.994;8.940;2023-06-24T06:39:41;6.97;;;4.85;;
32321;SDS011;61553;48.994;8.940;2023-06-24T06:42:07;8.25;;;5.32;;
32321;SDS011;61553;48.994;8.940;2023-06-24T06:44:32;7.10;;;4.93;;
32321;SDS011;61553;48.994;8.940;2023-06-24T06:46:58;6.18;;;4.68;;
32321;SDS011;61553;48.994;8.940;2023-06-24T06:49:24;10.68;;;6.30;;
32321;SDS011;61553;48.994;8.940;2023-06-24T06:51:49;7.57;;;5.13;;
32321;SDS011;61553;48.994;8.940;2023-06-24T06:54:17;9.40;;;5.28;;
32321;SDS011;61553;48.994;8.940;2023-06-24T06:56:42;6.40;;;5.20;;
32321;SDS011;61553;48.994;8.940;2023-06-24T06:59:08;9.48;;;5.82;;
32321;SDS011;61553;48.994;8.940;2023-06-24T07:01:33;7.90;;;5.10;;
32321;SDS011;61553;48.994;8.940;2023-06-24T07:03:59;7.00;;;4.55;;
32321;SDS011;61553;48.994;8.940;2023-06-24T07:06:24;7.10;;;4.93;;
32321;SDS011;61553;48.994;8.940;2023-06-24T07:08:50;7.13;;;4.97;;
32321;SDS011;61553;48.994;8.940;2023-06-24T07:11:16;6.25;;;4.63;;
32321;SDS011;61553;48.994;8.940;2023-06-24T07:13:41;6.93;;;4.30;;
32321;SDS011;61553;48.994;8.940;2023-06-24T07:16:07;6.53;;;5.00;;
32321;SDS011;61553;48.994;8.940;2023-06-24T07:18:33;8.57;;;5.53;;
32321;SDS011;61553;48.994;8.940;2023-06-24T07:20:59;8.52;;;5.43;;
32321;SDS011;61553;48.994;8.940;2023-06-24T07:23:26;5.82;;;4.30;;
32321;SDS011;61553;48.994;8.940;2023-06-24T07:25:52;6.07;;;4.55;;
32321;SDS011;61553;48.994;8.940;2023-06-24T07:28:17;5.57;;;4.85;;
32321;SDS011;61553;48.994;8.940;2023-06-24T07:30:43;7.57;;;5.00;;
32321;SDS011;61553;48.994;8.940;2023-06-24T07:33:09;7.70;;;5.45;;
32321;SDS011;61553;48.994;8.940;2023-06-24T07:35:34;8.20;;;5.22;;
32321;SDS011;61553;48.994;8.940;2023-06-24T07:38:00;5.03;;;3.83;;
32321;SDS011;61553;48.994;8.940;2023-06-24T07:40:26;8.25;;;4.80;;
32321;SDS011;61553;48.994;8.940;2023-06-24T07:42:52;14.27;;;5.75;;
32321;SDS011;61553;48.994;8.940;2023-06-24T07:45:18;7.00;;;5.18;;
32321;SDS011;61553;48.994;8.940;2023-06-24T07:47:44;8.93;;;5.45;;
32321;SDS011;61553;48.994;8.940;2023-06-24T07:50:10;6.65;;;5.28;;
32321;SDS011;61553;48.994;8.940;2023-06-24T07:52:36;6.22;;;4.40;;
32321;SDS011;61553;48.994;8.940;2023-06-24T07:55:02;5.68;;;4.25;;
32321;SDS011;61553;48.994;8.940;2023-06-24T07:57:28;6.88;;;4.68;;
32321;SDS011;61553;48.994;8.940;2023-06-24T07:59:54;6.18;;;4.68;;
32321;SDS011;61553;48.994;8.940;2023-06-24T08:02:20;5.15;;;3.75;;
32321;SDS011;61553;48.994;8.940;2023-06-24T08:04:46;5.35;;;4.10;;
32321;SDS011;61553;48.994;8.940;2023-06-24T08:07:12;7.20;;;4.85;;
32321;SDS011;61553;48.994;8.940;2023-06-24T08:09:37;8.65;;;5.45;;
32321;SDS011;61553;48.994;8.940;2023-06-24T08:12:03;6.97;;;4.75;;
32321;SDS011;61553;48.994;8.940;2023-06-24T08:14:29;6.50;;;4.40;;
32321;SDS011;61553;48.994;8.940;2023-06-24T08:16:55;4.93;;;3.92;;
32321;SDS011;61553;48.994;8.940;2023-06-24T08:19:20;5.90;;;4.53;;
32321;SDS011;61553;48.994;8.940;2023-06-24T08:21:46;5.22;;;4.40;;
32321;SDS011;61553;48.994;8.940;2023-06-24T08:24:12;6.63;;;4.05;;
32321;SDS011;61553;48.994;8.940;2023-06-24T08:26:37;14.10;;;4.88;;
32321;SDS011;61553;48.994;8.940;2023-06-24T08:29:03;5.18;;;4.10;;
32321;SDS011;61553;48.994;8.940;2023-06-24T08:31:29;12.52;;;4.55;;
32321;SDS011;61553;48.994;8.940;2023-06-24T08:33:54;6.63;;;4.50;;
32321;SDS011;61553;48.994;8.940;2023-06-24T08:36:26;4.95;;;3.58;;
32321;SDS011;61553;48.994;8.940;2023-06-24T08:38:54;6.53;;;4.00;;
32321;SDS011;61553;48.994;8.940;2023-06-24T08:41:19;5.97;;;3.40;;
32321;SDS011;61553;48.994;8.940;2023-06-24T08:43:45;4.55;;;3.50;;
32321;SDS011;61553;48.994;8.940;2023-06-24T08:46:12;3.60;;;2.45;;
32321;SDS011;61553;48.994;8.940;2023-06-24T08:48:41;5.28;;;3.20;;
32321;SDS011;61553;48.994;8.940;2023-06-24T08:51:09;3.38;;;2.65;;
32321;SDS011;61553;48.994;8.940;2023-06-24T08:53:37;4.30;;;2.95;;
32321;SDS011;61553;48.994;8.940;2023-06-24T08:56:03;5.32;;;3.17;;
32321;SDS011;61553;48.994;8.940;2023-06-24T08:58:30;4.30;;;3.20;;
32321;SDS011;61553;48.994;8.940;2023-06-24T09:00:55;4.13;;;3.30;;
32321;SDS011;61553;48.994;8.940;2023-06-24T09:03:22;3.83;;;2.88;;
32321;SDS011;61553;48.994;8.940;2023-06-24T09:05:47;4.07;;;3.20;;
32321;SDS011;61553;48.994;8.940;2023-06-24T09:08:13;3.80;;;2.80;;
32321;SDS011;61553;48.994;8.940;2023-06-24T09:10:40;5.20;;;3.92;;
32321;SDS011;61553;48.994;8.940;2023-06-24T09:13:06;3.80;;;3.10;;
32321;SDS011;61553;48.994;8.940;2023-06-24T09:15:33;5.05;;;3.58;;
32321;SDS011;61553;48.994;8.940;2023-06-24T09:17:59;6.22;;;3.20;;
32321;SDS011;61553;48.994;8.940;2023-06-24T09:20:26;5.13;;;2.90;;
32321;SDS011;61553;48.994;8.940;2023-06-24T09:22:57;4.90;;;3.72;;
32321;SDS011;61553;48.994;8.940;2023-06-24T09:25:24;5.45;;;3.67;;
32321;SDS011;61553;48.994;8.940;2023-06-24T09:27:50;4.13;;;2.90;;
32321;SDS011;61553;48.994;8.940;2023-06-24T09:32:47;4.32;;;3.10;;
32321;SDS011;61553;48.994;8.940;2023-06-24T09:35:20;4.32;;;3.10;;
32321;SDS011;61553;48.994;8.940;2023-06-24T09:37:51;4.60;;;3.22;;
32321;SDS011;61553;48.994;8.940;2023-06-24T09:40:17;4.97;;;3.60;;
32321;SDS011;61553;48.994;8.940;2023-06-24T09:42:53;5.13;;;3.63;;
32321;SDS011;61553;48.994;8.940;2023-06-24T09:45:23;4.75;;;3.30;;
32321;SDS011;61553;48.994;8.940;2023-06-24T09:47:50;3.30;;;2.67;;
32321;SDS011;61553;48.994;8.940;2023-06-24T09:50:16;5.35;;;3.65;;
32321;SDS011;61553;48.994;8.940;2023-06-24T09:52:42;5.78;;;3.78;;
32321;SDS011;61553;48.994;8.940;2023-06-24T09:55:09;6.13;;;3.47;;
32321;SDS011;61553;48.994;8.940;2023-06-24T09:57:37;4.40;;;3.60;;
32321;SDS011;61553;48.994;8.940;2023-06-24T10:00:05;4.93;;;2.80;;
32321;SDS011;61553;48.994;8.940;2023-06-24T10:02:31;4.00;;;3.25;;
32321;SDS011;61553;48.994;8.940;2023-06-24T10:04:59;5.82;;;3.60;;
32321;SDS011;61553;48.994;8.940;2023-06-24T10:07:26;5.72;;;3.65;;
32321;SDS011;61553;48.994;8.940;2023-06-24T10:09:53;3.90;;;2.95;;
32321;SDS011;61553;48.994;8.940;2023-06-24T10:12:19;5.22;;;3.40;;
32321;SDS011;61553;48.994;8.940;2023-06-24T10:14:45;5.55;;;3.50;;
32321;SDS011;61553;48.994;8.940;2023-06-24T10:17:11;5.00;;;3.45;;
32321;SDS011;61553;48.994;8.940;2023-06-24T10:19:38;5.00;;;3.45;;
32321;SDS011;61553;48.994;8.940;2023-06-24T10:22:08;4.38;;;3.22;;
32321;SDS011;61553;48.994;8.940;2023-06-24T10:24:40;6.55;;;3.78;;
32321;SDS011;61553;48.994;8.940;2023-06-24T10:27:17;5.03;;;3.53;;
32321;SDS011;61553;48.994;8.940;2023-06-24T10:29:47;4.55;;;3.30;;
32321;SDS011;61553;48.994;8.940;2023-06-24T10:32:14;9.02;;;4.32;;
32321;SDS011;61553;48.994;8.940;2023-06-24T10:34:41;6.03;;;3.33;;
32321;SDS011;61553;48.994;8.940;2023-06-24T10:37:12;4.53;;;3.20;;
32321;SDS011;61553;48.994;8.940;2023-06-24T10:44:53;4.55;;;3.55;;
32321;SDS011;61553;48.994;8.940;2023-06-24T10:47:23;5.38;;;3.80;;
32321;SDS011;61553;48.994;8.940;2023-06-24T10:49:49;4.68;;;3.33;;
32321;SDS011;61553;48.994;8.940;2023-06-24T10:52:16;5.80;;;3.85;;
32321;SDS011;61553;48.994;8.940;2023-06-24T10:54:45;5.72;;;3.42;;
32321;SDS011;61553;48.994;8.940;2023-06-24T10:57:11;6.38;;;3.58;;
32321;SDS011;61553;48.994;8.940;2023-06-24T10:59:40;6.07;;;3.42;;
32321;SDS011;61553;48.994;8.940;2023-06-24T11:02:07;5.88;;;3.20;;
32321;SDS011;61553;48.994;8.940;2023-06-24T11:04:46;5.05;;;3.40;;
32321;SDS011;61553;48.994;8.940;2023-06-24T11:07:16;4.53;;;2.92;;
32321;SDS011;61553;48.994;8.940;2023-06-24T11:09:48;5.63;;;3.00;;
32321;SDS011;61553;48.994;8.940;2023-06-24T11:12:25;5.72;;;2.63;;
32321;SDS011;61553;48.994;8.940;2023-06-24T11:14:51;4.22;;;2.83;;
32321;SDS011;61553;48.994;8.940;2023-06-24T11:17:24;4.68;;;2.70;;
32321;SDS011;61553;48.994;8.940;2023-06-24T11:19:51;5.47;;;3.33;;
32321;SDS011;61553;48.994;8.940;2023-06-24T11:22:18;4.35;;;2.85;;
32321;SDS011;61553;48.994;8.940;2023-06-24T11:24:44;5.13;;;3.00;;
32321;SDS011;61553;48.994;8.940;2023-06-24T11:27:09;4.47;;;2.92;;
32321;SDS011;61553;48.994;8.940;2023-06-24T11:29:35;14.65;;;3.28;;
32321;SDS011;61553;48.994;8.940;2023-06-24T11:32:01;4.97;;;2.83;;
32321;SDS011;61553;48.994;8.940;2023-06-24T11:34:28;11.57;;;4.30;;
32321;SDS011;61553;48.994;8.940;2023-06-24T11:36:54;5.22;;;3.00;;
32321;SDS011;61553;48.994;8.940;2023-06-24T11:39:20;7.32;;;3.33;;
32321;SDS011;61553;48.994;8.940;2023-06-24T11:41:47;4.72;;;2.80;;
32321;SDS011;61553;48.994;8.940;2023-06-24T11:44:13;5.55;;;3.05;;
32321;SDS011;61553;48.994;8.940;2023-06-24T11:46:38;5.25;;;2.90;;
32321;SDS011;61553;48.994;8.940;2023-06-24T11:49:06;4.05;;;2.58;;
32321;SDS011;61553;48.994;8.940;2023-06-24T11:51:33;4.35;;;2.63;;
32321;SDS011;61553;48.994;8.940;2023-06-24T11:54:02;4.05;;;2.80;;
32321;SDS011;61553;48.994;8.940;2023-06-24T11:56:38;4.15;;;2.58;;
32321;SDS011;61553;48.994;8.940;2023-06-24T11:59:23;5.78;;;2.92;;
32321;SDS011;61553;48.994;8.940;2023-06-24T12:01:52;5.72;;;3.15;;
32321;SDS011;61553;48.994;8.940;2023-06-24T12:04:22;4.63;;;2.85;;
32321;SDS011;61553;48.994;8.940;2023-06-24T12:06:52;5.10;;;3.30;;
32321;SDS011;61553;48.994;8.940;2023-06-24T12:09:18;5.43;;;3.00;;
32321;SDS011;61553;48.994;8.940;2023-06-24T12:11:44;5.25;;;3.28;;
32321;SDS011;61553;48.994;8.940;2023-06-24T12:14:10;5.15;;;2.80;;
32321;SDS011;61553;48.994;8.940;2023-06-24T12:16:35;4.07;;;2.67;;
32321;SDS011;61553;48.994;8.940;2023-06-24T12:19:01;5.10;;;2.90;;
32321;SDS011;61553;48.994;8.940;2023-06-24T12:21:27;6.63;;;3.25;;
32321;SDS011;61553;48.994;8.940;2023-06-24T12:23:53;5.57;;;3.10;;
32321;SDS011;61553;48.994;8.940;2023-06-24T12:26:18;4.10;;;2.70;;
32321;SDS011;61553;48.994;8.940;2023-06-24T12:28:44;4.93;;;2.70;;
32321;SDS011;61553;48.994;8.940;2023-06-24T12:31:10;6.05;;;3.53;;
32321;SDS011;61553;48.994;8.940;2023-06-24T12:33:36;4.80;;;3.13;;
32321;SDS011;61553;48.994;8.940;2023-06-24T12:36:02;4.03;;;2.63;;
32321;SDS011;61553;48.994;8.940;2023-06-24T12:38:27;5.85;;;3.15;;
32321;SDS011;61553;48.994;8.940;2023-06-24T12:40:53;4.43;;;2.97;;
32321;SDS011;61553;48.994;8.940;2023-06-24T12:43:19;4.43;;;3.00;;
32321;SDS011;61553;48.994;8.940;2023-06-24T12:45:44;4.85;;;3.15;;
32321;SDS011;61553;48.994;8.940;2023-06-24T12:48:10;5.20;;;3.35;;
32321;SDS011;61553;48.994;8.940;2023-06-24T12:50:37;5.93;;;2.85;;
32321;SDS011;61553;48.994;8.940;2023-06-24T12:53:03;5.60;;;3.10;;
32321;SDS011;61553;48.994;8.940;2023-06-24T12:55:29;7.22;;;2.70;;
32321;SDS011;61553;48.994;8.940;2023-06-24T12:57:55;4.35;;;2.75;;
32321;SDS011;61553;48.994;8.940;2023-06-24T13:00:21;4.60;;;2.90;;
32321;SDS011;61553;48.994;8.940;2023-06-24T13:02:48;5.65;;;3.53;;
32321;SDS011;61553;48.994;8.940;2023-06-24T13:05:15;3.78;;;2.72;;
32321;SDS011;61553;48.994;8.940;2023-06-24T13:07:41;6.38;;;3.10;;
32321;SDS011;61553;48.994;8.940;2023-06-24T13:10:07;4.50;;;2.63;;
32321;SDS011;61553;48.994;8.940;2023-06-24T13:12:33;3.80;;;2.97;;
32321;SDS011;61553;48.994;8.940;2023-06-24T13:15:00;4.47;;;2.88;;
32321;SDS011;61553;48.994;8.940;2023-06-24T13:17:25;5.75;;;2.80;;
32321;SDS011;61553;48.994;8.940;2023-06-24T13:19:51;5.00;;;3.17;;
32321;SDS011;61553;48.994;8.940;2023-06-24T13:22:17;5.28;;;3.60;;
32321;SDS011;61553;48.994;8.940;2023-06-24T13:24:44;4.60;;;2.60;;
32321;SDS011;61553;48.994;8.940;2023-06-24T13:27:10;5.15;;;2.88;;
32321;SDS011;61553;48.994;8.940;2023-06-24T13:29:36;5.10;;;2.88;;
32321;SDS011;61553;48.994;8.940;2023-06-24T13:32:02;7.05;;;3.15;;
32321;SDS011;61553;48.994;8.940;2023-06-24T13:34:28;5.22;;;3.13;;
32321;SDS011;61553;48.994;8.940;2023-06-24T13:36:53;4.60;;;2.95;;
32321;SDS011;61553;48.994;8.940;2023-06-24T13:39:19;4.60;;;2.72;;
32321;SDS011;61553;48.994;8.940;2023-06-24T13:41:48;6.88;;;2.72;;
32321;SDS011;61553;48.994;8.940;2023-06-24T13:44:15;6.10;;;3.10;;
32321;SDS011;61553;48.994;8.940;2023-06-24T13:46:41;5.18;;;2.65;;
32321;SDS011;61553;48.994;8.940;2023-06-24T13:49:06;6.80;;;3.08;;
32321;SDS011;61553;48.994;8.940;2023-06-24T13:51:32;5.97;;;2.85;;
32321;SDS011;61553;48.994;8.940;2023-06-24T13:53:58;6.28;;;2.78;;
32321;SDS011;61553;48.994;8.940;2023-06-24T13:56:24;5.05;;;3.10;;
32321;SDS011;61553;48.994;8.940;2023-06-24T13:58:50;6.47;;;3.30;;
32321;SDS011;61553;48.994;8.940;2023-06-24T14:01:17;4.43;;;3.03;;
32321;SDS011;61553;48.994;8.940;2023-06-24T14:03:43;5.15;;;2.53;;
32321;SDS011;61553;48.994;8.940;2023-06-24T14:06:09;4.97;;;2.92;;
32321;SDS011;61553;48.994;8.940;2023-06-24T14:08:35;5.63;;;2.78;;
32321;SDS011;61553;48.994;8.940;2023-06-24T14:11:01;6.00;;;2.42;;
32321;SDS011;61553;48.994;8.940;2023-06-24T14:13:28;4.72;;;2.78;;
32321;SDS011;61553;48.994;8.940;2023-06-24T14:15:54;4.32;;;2.78;;
32321;SDS011;61553;48.994;8.940;2023-06-24T14:18:20;5.78;;;2.67;;
32321;SDS011;61553;48.994;8.940;2023-06-24T14:20:46;4.78;;;2.83;;
32321;SDS011;61553;48.994;8.940;2023-06-24T14:23:12;4.30;;;2.33;;
32321;SDS011;61553;48.994;8.940;2023-06-24T14:25:37;4.22;;;2.42;;
32321;SDS011;61553;48.994;8.940;2023-06-24T14:28:04;4.38;;;2.45;;
32321;SDS011;61553;48.994;8.940;2023-06-24T14:30:30;4.15;;;2.60;;
32321;SDS011;61553;48.994;8.940;2023-06-24T14:32:56;3.95;;;2.35;;
32321;SDS011;61553;48.994;8.940;2023-06-24T14:35:21;4.82;;;2.83;;
32321;SDS011;61553;48.994;8.940;2023-06-24T14:37:47;4.50;;;2.92;;
32321;SDS011;61553;48.994;8.940;2023-06-24T14:40:13;3.72;;;2.40;;
32321;SDS011;61553;48.994;8.940;2023-06-24T14:42:38;3.97;;;2.53;;
32321;SDS011;61553;48.994;8.940;2023-06-24T14:45:04;4.47;;;2.33;;
32321;SDS011;61553;48.994;8.940;2023-06-24T14:47:30;4.07;;;2.22;;
32321;SDS011;61553;48.994;8.940;2023-06-24T14:49:56;3.72;;;2.42;;
32321;SDS011;61553;48.994;8.940;2023-06-24T14:52:22;3.60;;;2.50;;
32321;SDS011;61553;48.994;8.940;2023-06-24T14:54:48;4.40;;;2.42;;
32321;SDS011;61553;48.994;8.940;2023-06-24T14:57:14;5.20;;;2.70;;
32321;SDS011;61553;48.994;8.940;2023-06-24T14:59:42;5.50;;;2.88;;
32321;SDS011;61553;48.994;8.940;2023-06-24T15:02:08;4.57;;;2.60;;